G9BS OTHH-OTHH
Flight info
| Callsign | G9BS |
|---|---|
| Flight time | 0h 23m |
| Altitude | 1000 |
| Route | TRAFFIC PATTERN |
| Aircraft | DA62/L-V/N |
Departure
| Time | 2026-05-06 18:49 |
|---|---|
| Airport | Hamad International Airport (OTHH) |
Arrival
| Time | 2026-05-06 19:12 |
|---|---|
| Airport | Hamad International Airport (OTHH) |
| Time | Latitude | Longitude | Altitude | Speed | Heading |
|---|---|---|---|---|---|
| 2026-05-06 18:40 | 25.26132 | 51.62008 | 25 ft | 0 kts | 248° |
| 2026-05-06 18:46 | 25.26131 | 51.62008 | 25 ft | 0 kts | 249° |
| 2026-05-06 18:46 | 25.26132 | 51.61999 | 25 ft | 4 kts | 303° |
| 2026-05-06 18:46 | 25.26140 | 51.61998 | 25 ft | 2 kts | 33° |
| 2026-05-06 18:46 | 25.26142 | 51.62043 | 25 ft | 9 kts | 95° |
| 2026-05-06 18:47 | 25.26147 | 51.62110 | 25 ft | 4 kts | 152° |
| 2026-05-06 18:47 | 25.26073 | 51.62134 | 25 ft | 15 kts | 144° |
| 2026-05-06 18:47 | 25.25980 | 51.62210 | 25 ft | 18 kts | 135° |
| 2026-05-06 18:47 | 25.25973 | 51.62253 | 24 ft | 7 kts | 66° |
| 2026-05-06 18:48 | 25.26004 | 51.62339 | 23 ft | 17 kts | 67° |
| 2026-05-06 18:48 | 25.26084 | 51.62429 | 21 ft | 16 kts | 351° |
| 2026-05-06 18:48 | 25.26361 | 51.62320 | 22 ft | 67 kts | 337° |
| 2026-05-06 18:48 | 25.26894 | 51.62088 | 72 ft | 94 kts | 341° |
| 2026-05-06 18:49 | 25.27478 | 51.61843 | 352 ft | 92 kts | 341° |
| 2026-05-06 18:49 | 25.28112 | 51.61746 | 581 ft | 94 kts | 11° |
| 2026-05-06 18:49 | 25.28607 | 51.62270 | 754 ft | 113 kts | 53° |
| 2026-05-06 18:49 | 25.28860 | 51.63196 | 806 ft | 136 kts | 86° |
| 2026-05-06 18:50 | 25.28294 | 51.64055 | 857 ft | 152 kts | 149° |
| 2026-05-06 18:50 | 25.27281 | 51.64513 | 850 ft | 160 kts | 157° |
| 2026-05-06 18:50 | 25.26342 | 51.65008 | 933 ft | 155 kts | 162° |
| 2026-05-06 18:50 | 25.25303 | 51.65519 | 803 ft | 159 kts | 153° |
| 2026-05-06 18:51 | 25.24349 | 51.65992 | 893 ft | 141 kts | 173° |
| 2026-05-06 18:51 | 25.23396 | 51.65847 | 752 ft | 137 kts | 213° |
| 2026-05-06 18:51 | 25.22811 | 51.65104 | 739 ft | 122 kts | 246° |
| 2026-05-06 18:51 | 25.22651 | 51.64235 | 615 ft | 115 kts | 290° |
| 2026-05-06 18:52 | 25.23157 | 51.63603 | 444 ft | 113 kts | 342° |
| 2026-05-06 18:52 | 25.23894 | 51.63321 | 309 ft | 110 kts | 340° |
| 2026-05-06 18:52 | 25.24602 | 51.63028 | 152 ft | 107 kts | 340° |
| 2026-05-06 18:52 | 25.25276 | 51.62762 | 89 ft | 99 kts | 341° |
| 2026-05-06 18:53 | 25.25910 | 51.62512 | 44 ft | 95 kts | 338° |
| 2026-05-06 18:53 | 25.26493 | 51.62238 | 50 ft | 92 kts | 345° |
| 2026-05-06 18:53 | 25.27113 | 51.61998 | 200 ft | 98 kts | 343° |
| 2026-05-06 18:53 | 25.27795 | 51.61750 | 277 ft | 109 kts | 343° |
| 2026-05-06 18:54 | 25.28565 | 51.61619 | 427 ft | 112 kts | 10° |
| 2026-05-06 18:54 | 25.29015 | 51.62436 | 654 ft | 150 kts | 102° |
| 2026-05-06 18:54 | 25.28845 | 51.63518 | 522 ft | 164 kts | 108° |
| 2026-05-06 18:54 | 25.28372 | 51.64531 | 813 ft | 124 kts | 78° |
| 2026-05-06 18:55 | 25.28904 | 51.65084 | 659 ft | 117 kts | 357° |
| 2026-05-06 18:55 | 25.29340 | 51.64429 | 426 ft | 143 kts | 260° |
| 2026-05-06 18:55 | 25.28536 | 51.63779 | 369 ft | 153 kts | 190° |
| 2026-05-06 18:55 | 25.27469 | 51.63811 | 570 ft | 149 kts | 171° |
| 2026-05-06 18:56 | 25.26596 | 51.63586 | 573 ft | 133 kts | 215° |
| 2026-05-06 18:56 | 25.25660 | 51.63573 | 647 ft | 151 kts | 165° |
| 2026-05-06 18:56 | 25.24664 | 51.64040 | 659 ft | 158 kts | 147° |
| 2026-05-06 18:56 | 25.23862 | 51.64735 | 909 ft | 145 kts | 148° |
| 2026-05-06 18:57 | 25.22963 | 51.64596 | 936 ft | 143 kts | 235° |
| 2026-05-06 18:57 | 25.22941 | 51.63651 | 995 ft | 129 kts | 323° |
| 2026-05-06 18:57 | 25.23869 | 51.63296 | 413 ft | 150 kts | 5° |
| 2026-05-06 18:57 | 25.24777 | 51.63114 | 678 ft | 137 kts | 335° |
| 2026-05-06 18:58 | 25.25659 | 51.62640 | 587 ft | 146 kts | 338° |
| 2026-05-06 18:58 | 25.26612 | 51.62232 | 547 ft | 147 kts | 340° |
| 2026-05-06 18:58 | 25.27574 | 51.61787 | 410 ft | 155 kts | 339° |
| 2026-05-06 18:58 | 25.28548 | 51.61825 | 481 ft | 156 kts | 46° |
| 2026-05-06 18:59 | 25.28802 | 51.62974 | 570 ft | 166 kts | 97° |
| 2026-05-06 18:59 | 25.28098 | 51.63964 | 676 ft | 169 kts | 146° |
| 2026-05-06 18:59 | 25.27012 | 51.64455 | 713 ft | 169 kts | 174° |
| 2026-05-06 18:59 | 25.25844 | 51.64487 | 783 ft | 165 kts | 188° |
| 2026-05-06 19:00 | 25.24669 | 51.64431 | 743 ft | 171 kts | 182° |
| 2026-05-06 19:00 | 25.23685 | 51.63891 | 724 ft | 164 kts | 244° |
| 2026-05-06 19:00 | 25.24007 | 51.63012 | 722 ft | 145 kts | 353° |
| 2026-05-06 19:00 | 25.24742 | 51.62995 | 237 ft | 172 kts | 353° |
| 2026-05-06 19:01 | 25.26229 | 51.62371 | 68 ft | 165 kts | 340° |
| 2026-05-06 19:01 | 25.27273 | 51.61918 | 43 ft | 158 kts | 340° |
| 2026-05-06 19:01 | 25.28275 | 51.61482 | 30 ft | 153 kts | 340° |
| 2026-05-06 19:01 | 25.29183 | 51.61115 | 578 ft | 95 kts | 346° |
| 2026-05-06 19:02 | 25.29843 | 51.61142 | 760 ft | 120 kts | 29° |
| 2026-05-06 19:02 | 25.30143 | 51.62053 | 837 ft | 144 kts | 100° |
| 2026-05-06 19:02 | 25.29441 | 51.62904 | 765 ft | 166 kts | 156° |
| 2026-05-06 19:02 | 25.28313 | 51.63371 | 654 ft | 179 kts | 164° |
| 2026-05-06 19:03 | 25.27104 | 51.63736 | 647 ft | 179 kts | 170° |
| 2026-05-06 19:03 | 25.25868 | 51.64038 | 558 ft | 183 kts | 171° |
| 2026-05-06 19:03 | 25.24680 | 51.63960 | 550 ft | 172 kts | 224° |
| 2026-05-06 19:03 | 25.24424 | 51.63206 | 573 ft | 147 kts | 288° |
| 2026-05-06 19:04 | 25.25531 | 51.62719 | 140 ft | 141 kts | 346° |
| 2026-05-06 19:04 | 25.26405 | 51.62304 | 32 ft | 130 kts | 340° |
| 2026-05-06 19:04 | 25.27209 | 51.61951 | 119 ft | 116 kts | 339° |
| 2026-05-06 19:04 | 25.27940 | 51.61707 | 293 ft | 108 kts | 356° |
| 2026-05-06 19:05 | 25.28418 | 51.61888 | 324 ft | 122 kts | 44° |
| 2026-05-06 19:05 | 25.28297 | 51.62808 | 332 ft | 144 kts | 142° |
| 2026-05-06 19:05 | 25.27402 | 51.63206 | 417 ft | 144 kts | 167° |
| 2026-05-06 19:05 | 25.26394 | 51.63475 | 268 ft | 157 kts | 169° |
| 2026-05-06 19:06 | 25.25298 | 51.63712 | 160 ft | 159 kts | 171° |
| 2026-05-06 19:06 | 25.24240 | 51.63721 | 248 ft | 143 kts | 212° |
| 2026-05-06 19:06 | 25.24115 | 51.62854 | 262 ft | 123 kts | 328° |
| 2026-05-06 19:06 | 25.24967 | 51.62753 | 106 ft | 129 kts | 359° |
| 2026-05-06 19:07 | 25.25834 | 51.62551 | 73 ft | 128 kts | 342° |
| 2026-05-06 19:07 | 25.26636 | 51.62209 | 149 ft | 121 kts | 342° |
| 2026-05-06 19:07 | 25.27432 | 51.61923 | 203 ft | 118 kts | 346° |
| 2026-05-06 19:07 | 25.28213 | 51.61785 | 404 ft | 109 kts | 357° |
| 2026-05-06 19:08 | 25.28905 | 51.62021 | 690 ft | 102 kts | 38° |
| 2026-05-06 19:08 | 25.28946 | 51.62840 | 795 ft | 124 kts | 126° |
| 2026-05-06 19:08 | 25.28257 | 51.63504 | 838 ft | 137 kts | 120° |
| 2026-05-06 19:08 | 25.28321 | 51.64428 | 917 ft | 125 kts | 39° |
| 2026-05-06 19:09 | 25.29070 | 51.64466 | 964 ft | 122 kts | 314° |
| 2026-05-06 19:09 | 25.28818 | 51.63585 | 925 ft | 152 kts | 207° |
| 2026-05-06 19:09 | 25.27922 | 51.64060 | 1051 ft | 158 kts | 110° |
| 2026-05-06 19:09 | 25.28065 | 51.65142 | 1284 ft | 137 kts | 49° |
| 2026-05-06 19:10 | 25.28703 | 51.65854 | 1445 ft | 132 kts | 68° |
| 2026-05-06 19:10 | 25.28158 | 51.66638 | 1183 ft | 171 kts | 163° |
| 2026-05-06 19:10 | 25.26918 | 51.66639 | 927 ft | 182 kts | 198° |
| 2026-05-06 19:10 | 25.25759 | 51.66154 | 852 ft | 178 kts | 207° |
| 2026-05-06 19:11 | 25.24672 | 51.65514 | 787 ft | 174 kts | 219° |
| 2026-05-06 19:11 | 25.24109 | 51.64496 | 818 ft | 155 kts | 279° |
| 2026-05-06 19:11 | 25.24626 | 51.63406 | 502 ft | 169 kts | 313° |
| 2026-05-06 19:11 | 25.25443 | 51.62735 | 214 ft | 132 kts | 338° |
| 2026-05-06 19:12 | 25.26214 | 51.62402 | 47 ft | 106 kts | 337° |
| 2026-05-06 19:12 | 25.26828 | 51.62115 | 18 ft | 81 kts | 337° |
| 2026-05-06 19:12 | 25.27193 | 51.61953 | 21 ft | 39 kts | 336° |
| 2026-05-06 19:12 | 25.27368 | 51.61829 | 21 ft | 21 kts | 317° |
| 2026-05-06 19:13 | 25.27451 | 51.61732 | 23 ft | 14 kts | 295° |
| 2026-05-06 19:13 | 25.27436 | 51.61658 | 23 ft | 10 kts | 199° |
| 2026-05-06 19:13 | 25.27369 | 51.61673 | 24 ft | 11 kts | 163° |
| 2026-05-06 19:13 | 25.27295 | 51.61704 | 23 ft | 12 kts | 158° |
| 2026-05-06 19:14 | 25.27215 | 51.61741 | 23 ft | 13 kts | 158° |
| 2026-05-06 19:14 | 25.27128 | 51.61779 | 23 ft | 14 kts | 153° |
| 2026-05-06 19:14 | 25.27037 | 51.61822 | 23 ft | 15 kts | 159° |
| 2026-05-06 19:14 | 25.26940 | 51.61861 | 23 ft | 15 kts | 159° |
| 2026-05-06 19:15 | 25.26841 | 51.61904 | 23 ft | 15 kts | 158° |
| 2026-05-06 19:15 | 25.26740 | 51.61948 | 23 ft | 16 kts | 159° |
| 2026-05-06 19:15 | 25.26638 | 51.61993 | 23 ft | 16 kts | 156° |
| 2026-05-06 19:15 | 25.26570 | 51.61983 | 23 ft | 8 kts | 228° |
| 2026-05-06 19:16 | 25.26531 | 51.61941 | 24 ft | 8 kts | 186° |
| 2026-05-06 19:16 | 25.26475 | 51.61960 | 24 ft | 9 kts | 159° |
| 2026-05-06 19:16 | 25.26411 | 51.61985 | 24 ft | 10 kts | 160° |
| 2026-05-06 19:16 | 25.26342 | 51.62013 | 25 ft | 11 kts | 160° |
| 2026-05-06 19:17 | 25.26266 | 51.62045 | 25 ft | 12 kts | 159° |
| 2026-05-06 19:17 | 25.26185 | 51.62036 | 25 ft | 13 kts | 211° |
| 2026-05-06 19:17 | 25.26113 | 51.61996 | 25 ft | 2 kts | 245° |
| 2026-05-06 19:17 | 25.26109 | 51.61986 | 25 ft | 0 kts | 245° |